Time;durP1;ratioP1;P1;durP2;ratioP2;P2;SDS_P1;SDS_P2;PMS_P1;PMS_P2;Temp;Humidity;BMP_temperature;BMP_pressure;BME280_temperature;BME280_humidity;BME280_pressure;Samples;Min_cycle;Max_cycle;Signal;HPM_P1;HPM_P2
2023/12/19 00:01:03;;;;;;;52.03;24.02;;;;;;;-0.13;100.00;98721.34;5133198;27;20414;-78
2023/12/19 00:03:29;;;;;;;50.28;21.48;;;;;;;-0.10;100.00;98716.06;5152677;27;20098;-79
2023/12/19 00:05:54;;;;;;;53.63;23.20;;;;;;;-0.08;100.00;98715.19;5134960;27;20200;-79
2023/12/19 00:08:20;;;;;;;48.75;22.05;;;;;;;-0.07;100.00;98713.44;5126238;27;20497;-78
2023/12/19 00:10:46;;;;;;;45.35;21.15;;;;;;;-0.15;100.00;98715.19;5111840;27;20114;-77
2023/12/19 00:13:12;;;;;;;51.45;22.65;;;;;;;-0.27;100.00;98723.97;5116930;27;20401;-78
2023/12/19 00:15:38;;;;;;;48.28;21.80;;;;;;;-0.21;100.00;98708.19;5132281;27;20553;-78
2023/12/19 00:18:04;;;;;;;46.10;20.67;;;;;;;-0.16;100.00;98714.34;5105438;28;20034;-78
2023/12/19 00:20:30;;;;;;;54.92;23.50;;;;;;;-0.20;100.00;98725.72;5149588;27;20130;-78
2023/12/19 00:22:55;;;;;;;55.60;26.10;;;;;;;-0.24;100.00;98713.44;5134529;27;20079;-78
2023/12/19 00:25:23;;;;;;;60.92;24.70;;;;;;;-0.22;100.00;98713.47;5117387;27;20409;-78
2023/12/19 00:27:49;;;;;;;80.57;35.17;;;;;;;-0.22;100.00;98721.34;5124599;27;20026;-77
2023/12/19 00:30:15;;;;;;;99.35;41.53;;;;;;;-0.30;100.00;98709.94;5134589;27;20030;-78
2023/12/19 00:32:40;;;;;;;132.00;51.67;;;;;;;-0.28;100.00;98710.84;5131629;27;20493;-79
2023/12/19 00:35:06;;;;;;;133.63;51.08;;;;;;;-0.39;100.00;98716.09;5114992;27;20114;-79
2023/12/19 00:37:32;;;;;;;94.57;40.95;;;;;;;-0.42;100.00;98729.22;5132825;27;20082;-79
2023/12/19 00:39:58;;;;;;;96.45;37.33;;;;;;;-0.57;100.00;98716.97;5134424;27;20034;-79
2023/12/19 00:42:23;;;;;;;83.43;33.60;;;;;;;-0.57;100.00;98716.97;5134659;27;20477;-78
2023/12/19 00:44:49;;;;;;;92.35;39.40;;;;;;;-0.74;100.00;98713.41;5134169;27;20023;-77
2023/12/19 00:47:14;;;;;;;85.22;34.40;;;;;;;-0.89;100.00;98708.16;5146853;27;20466;-78
2023/12/19 00:49:40;;;;;;;81.47;33.75;;;;;;;-0.92;100.00;98717.78;5116964;27;20023;-78
2023/12/19 00:52:05;;;;;;;90.05;36.92;;;;;;;-1.03;100.00;98715.13;5126974;27;20117;-78
2023/12/19 00:54:31;;;;;;;76.40;31.10;;;;;;;-0.96;100.00;98719.53;5120385;27;20022;-78
2023/12/19 00:56:57;;;;;;;111.07;32.08;;;;;;;-1.03;100.00;98715.13;5112985;28;20386;-80
2023/12/19 00:59:22;;;;;;;75.80;31.40;;;;;;;-1.14;100.00;98704.59;5110101;28;20020;-79
2023/12/19 01:01:48;;;;;;;75.53;27.38;;;;;;;-1.24;100.00;98705.47;5130880;27;20111;-76
2023/12/19 01:04:13;;;;;;;92.97;30.50;;;;;;;-1.33;100.00;98715.03;5098701;28;20023;-78
2023/12/19 01:06:40;;;;;;;136.73;31.17;;;;;;;-1.36;100.00;98710.66;5077765;27;1523003;-77
2023/12/19 01:09:05;;;;;;;88.40;31.33;;;;;;;-1.35;100.00;98722.91;5153051;27;20114;-78
2023/12/19 01:11:31;;;;;;;83.72;29.00;;;;;;;-1.23;100.00;98719.47;5127171;27;20023;-78
2023/12/19 01:13:57;;;;;;;96.45;30.83;;;;;;;-1.16;100.00;98729.97;5133796;27;20105;-78
2023/12/19 01:16:22;;;;;;;92.80;31.92;;;;;;;-1.23;100.00;98719.47;5130769;27;20500;-78
2023/12/19 01:18:48;;;;;;;83.35;31.30;;;;;;;-1.17;100.00;98727.34;5131082;27;20130;-78
2023/12/19 01:21:13;;;;;;;76.13;28.85;;;;;;;-1.11;100.00;98722.13;5130932;27;20015;-77
2023/12/19 01:23:39;;;;;;;71.22;30.33;;;;;;;-1.06;100.00;98725.63;5131065;27;20023;-78
2023/12/19 01:26:05;;;;;;;80.00;34.45;;;;;;;-1.04;100.00;98725.63;5130792;27;20087;-78
2023/12/19 01:28:30;;;;;;;67.18;28.80;;;;;;;-1.19;100.00;98718.56;5128072;27;20037;-78
2023/12/19 01:30:56;;;;;;;68.57;29.40;;;;;;;-1.12;100.00;98721.25;5108569;27;20041;-78
2023/12/19 01:33:22;;;;;;;78.03;33.03;;;;;;;-1.03;100.00;98720.38;5128265;27;20087;-78
2023/12/19 01:35:47;;;;;;;88.65;36.10;;;;;;;-1.01;100.00;98720.38;5124564;27;20068;-78
2023/12/19 01:38:14;;;;;;;88.28;32.45;;;;;;;-1.00;100.00;98715.13;5133084;27;20027;-78
2023/12/19 01:40:40;;;;;;;85.03;34.92;;;;;;;-0.90;100.00;98716.91;5120238;27;20019;-78
2023/12/19 01:43:17;;;;;;;99.90;37.90;;;;;;;-0.86;100.00;98718.66;5109917;27;20035;-78
2023/12/19 01:45:43;;;;;;;84.53;33.03;;;;;;;-0.88;100.00;98712.53;5115596;27;20106;-78
2023/12/19 01:48:09;;;;;;;72.43;31.70;;;;;;;-0.85;100.00;98707.28;5116531;27;20196;-78
2023/12/19 01:50:35;;;;;;;69.38;31.73;;;;;;;-0.92;100.00;98704.66;5128642;27;20027;-78
2023/12/19 01:53:00;;;;;;;83.32;35.83;;;;;;;-0.93;100.00;98709.03;5125928;27;20025;-78
2023/12/19 01:55:27;;;;;;;86.80;35.22;;;;;;;-1.05;100.00;98710.75;5131343;27;20033;-79
2023/12/19 01:57:56;;;;;;;80.78;38.03;;;;;;;-1.06;100.00;98701.13;5113536;27;20027;-78
2023/12/19 02:00:22;;;;;;;94.32;42.40;;;;;;;-0.95;100.00;98710.75;5130560;27;20094;-78
2023/12/19 02:02:52;;;;;;;85.03;37.90;;;;;;;-1.02;100.00;98710.75;5133076;27;20072;-78
2023/12/19 02:05:17;;;;;;;76.90;34.83;;;;;;;-1.17;100.00;98704.56;5111756;27;20023;-78
2023/12/19 02:07:43;;;;;;;85.22;36.78;;;;;;;-1.23;100.00;98708.97;5134000;27;20030;-78
2023/12/19 02:10:10;;;;;;;84.40;35.22;;;;;;;-1.06;100.00;98701.13;5116628;27;20030;-77
2023/12/19 02:12:36;;;;;;;67.43;29.83;;;;;;;-1.07;100.00;98700.22;5131807;27;20027;-79
2023/12/19 02:15:02;;;;;;;71.82;31.63;;;;;;;-1.15;100.00;98707.22;5130388;27;20030;-79
2023/12/19 02:17:28;;;;;;;85.55;32.67;;;;;;;-1.17;100.00;98703.72;5151374;27;20018;-79
2023/12/19 02:19:54;;;;;;;74.03;33.67;;;;;;;-1.16;100.00;98697.59;5128485;27;20046;-78
2023/12/19 02:22:20;;;;;;;77.70;33.72;;;;;;;-1.22;100.00;98687.06;5115057;27;20414;-79
2023/12/19 02:24:45;;;;;;;77.00;32.05;;;;;;;-1.33;100.00;98705.44;5116320;27;20576;-79
2023/12/19 02:27:12;;;;;;;74.88;32.78;;;;;;;-1.18;100.00;98707.22;5133261;27;20109;-78
2023/12/19 02:29:37;;;;;;;80.15;32.05;;;;;;;-1.27;100.00;98696.69;5116027;27;20028;-79
2023/12/19 02:32:03;;;;;;;84.90;34.50;;;;;;;-1.25;100.00;98690.56;5133649;27;20113;-79
2023/12/19 02:34:29;;;;;;;73.07;30.88;;;;;;;-1.19;100.00;98694.97;5151646;27;20027;-79
2023/12/19 02:36:56;;;;;;;70.60;30.02;;;;;;;-1.26;100.00;98698.47;5116303;27;20023;-79
2023/12/19 02:39:22;;;;;;;75.28;30.08;;;;;;;-1.34;100.00;98690.53;5133160;27;20033;-79
2023/12/19 02:41:47;;;;;;;73.50;29.75;;;;;;;-1.29;100.00;98695.81;5133448;27;20022;-79
2023/12/19 02:44:13;;;;;;;83.05;32.20;;;;;;;-1.28;100.00;98689.69;5096303;27;20040;-78
2023/12/19 02:46:38;;;;;;;85.55;30.80;;;;;;;-1.17;100.00;98688.84;5115880;27;20026;-79
2023/12/19 02:49:04;;;;;;;90.05;34.22;;;;;;;-1.14;100.00;98686.22;5133359;27;20026;-79
2023/12/19 02:51:30;;;;;;;89.13;32.40;;;;;;;-1.14;100.00;98690.63;5151657;27;20474;-79
2023/12/19 02:53:56;;;;;;;92.57;34.58;;;;;;;-1.14;100.00;98677.50;5133259;27;20105;-79
2023/12/19 02:56:22;;;;;;;94.22;35.03;;;;;;;-1.08;100.00;98686.22;5144293;27;20011;-78
2023/12/19 02:58:48;;;;;;;84.28;34.33;;;;;;;-1.16;100.00;98681.84;5131917;27;20022;-79
2023/12/19 03:01:14;;;;;;;80.68;31.05;;;;;;;-1.19;100.00;98676.59;5115762;27;20079;-77
2023/12/19 03:03:40;;;;;;;89.32;34.20;;;;;;;-1.26;100.00;98680.09;5151384;27;20101;-78
2023/12/19 03:06:06;;;;;;;83.88;33.80;;;;;;;-1.25;100.00;98680.06;5115740;27;20046;-78
2023/12/19 03:08:34;;;;;;;90.82;36.22;;;;;;;-1.32;100.00;98678.28;5115663;27;20030;-79
2023/12/19 03:11:00;;;;;;;98.05;35.85;;;;;;;-1.42;100.00;98665.16;5133088;27;20050;-79
2023/12/19 03:13:26;;;;;;;145.82;36.38;;;;;;;-1.34;100.00;98669.56;5132920;27;20065;-78
2023/12/19 03:15:51;;;;;;;128.73;38.80;;;;;;;-1.23;100.00;98673.06;5132915;27;20033;-79
2023/12/19 03:18:23;;;;;;;112.32;38.05;;;;;;;-1.17;100.00;98677.50;5132760;27;20578;-77
2023/12/19 03:20:49;;;;;;;140.75;39.78;;;;;;;-1.17;100.00;98665.22;5132267;27;20022;-78
2023/12/19 03:23:15;;;;;;;168.45;43.60;;;;;;;-1.11;100.00;98672.25;5115870;27;20077;-79
2023/12/19 03:25:41;;;;;;;119.50;37.90;;;;;;;-1.27;100.00;98659.97;5115523;27;20050;-79
2023/12/19 03:28:07;;;;;;;176.48;46.65;;;;;;;-1.33;100.00;98670.44;5151588;27;20487;-79
2023/12/19 03:30:32;;;;;;;211.65;45.50;;;;;;;-1.20;100.00;98672.22;5115586;27;20034;-78
2023/12/19 03:32:58;;;;;;;130.38;42.17;;;;;;;-1.19;100.00;98677.47;5133011;27;20426;-79
2023/12/19 03:35:23;;;;;;;133.55;39.03;;;;;;;-1.16;100.00;98664.34;5115670;27;20031;-79
2023/12/19 03:37:50;;;;;;;284.13;54.22;;;;;;;-1.12;100.00;98663.50;5138654;27;20016;-78
2023/12/19 03:40:16;;;;;;;241.93;55.33;;;;;;;-1.07;100.00;98673.97;5112859;27;20046;-79
2023/12/19 03:42:42;;;;;;;166.75;48.00;;;;;;;-0.97;100.00;98669.63;5136449;27;20346;-79
2023/12/19 03:45:08;;;;;;;131.75;43.20;;;;;;;-1.19;100.00;98666.97;5155535;27;20034;-78
2023/12/19 03:47:34;;;;;;;148.25;43.63;;;;;;;-1.24;100.00;98670.47;5119016;27;20023;-77
2023/12/19 03:49:59;;;;;;;143.38;42.20;;;;;;;-1.19;100.00;98663.47;5136306;27;20496;-77
2023/12/19 03:52:25;;;;;;;132.32;40.10;;;;;;;-1.10;100.00;98668.72;5154891;27;20019;-79
2023/12/19 03:54:51;;;;;;;120.68;38.30;;;;;;;-1.17;100.00;98667.00;5119060;27;20033;-78
2023/12/19 03:57:16;;;;;;;113.75;37.60;;;;;;;-1.25;100.00;98660.81;5136546;27;20023;-79
2023/12/19 03:59:43;;;;;;;123.80;41.55;;;;;;;-1.18;100.00;98665.22;5136263;27;20034;-78
2023/12/19 04:02:09;;;;;;;101.35;37.13;;;;;;;-1.17;100.00;98657.34;5119177;27;20025;-79
2023/12/19 04:04:35;;;;;;;128.73;40.25;;;;;;;-1.25;100.00;98658.19;5136179;27;20030;-78
2023/12/19 04:07:01;;;;;;;186.82;42.50;;;;;;;-1.28;100.00;98652.94;5135987;27;20470;-79
2023/12/19 04:09:26;;;;;;;161.65;37.50;;;;;;;-1.20;100.00;98662.59;5136007;27;20500;-79
2023/12/19 04:11:52;;;;;;;124.18;35.08;;;;;;;-1.16;100.00;98663.47;5154774;27;20111;-79
2023/12/19 04:14:18;;;;;;;107.10;29.38;;;;;;;-1.25;100.00;98666.94;5154524;27;20019;-79
2023/12/19 04:16:44;;;;;;;125.88;31.52;;;;;;;-1.20;100.00;98666.97;5154423;27;20022;-78
2023/12/19 04:19:09;;;;;;;144.50;30.25;;;;;;;-1.14;100.00;98665.22;5124532;27;20463;-79
2023/12/19 04:21:36;;;;;;;119.28;34.15;;;;;;;-1.17;100.00;98661.75;5115446;27;20405;-79
2023/12/19 04:24:05;;;;;;;110.43;29.20;;;;;;;-1.25;100.00;98672.19;5130900;27;20041;-79
2023/12/19 04:26:31;;;;;;;113.57;29.10;;;;;;;-1.15;100.00;98660.88;5118249;27;20030;-79
2023/12/19 04:28:57;;;;;;;161.65;36.72;;;;;;;-1.08;100.00;98659.97;5103465;27;20038;-79
2023/12/19 04:31:22;;;;;;;139.63;33.78;;;;;;;-1.04;100.00;98667.84;5114961;27;20030;-79
2023/12/19 04:33:48;;;;;;;102.78;29.83;;;;;;;-1.24;100.00;98665.22;5115022;27;20031;-79
2023/12/19 04:36:13;;;;;;;102.78;32.53;;;;;;;-1.26;100.00;98661.72;5132099;27;20562;-77
2023/12/19 04:38:39;;;;;;;141.32;34.83;;;;;;;-1.13;100.00;98668.72;5135648;27;20022;-78
2023/12/19 04:41:06;;;;;;;116.57;34.38;;;;;;;-1.12;100.00;98666.13;5138150;27;20035;-79
2023/12/19 04:43:32;;;;;;;129.23;38.15;;;;;;;-1.01;100.00;98673.13;5132936;27;20098;-80
2023/12/19 04:46:00;;;;;;;193.27;40.83;;;;;;;-1.02;100.00;98671.38;5083966;27;20384;-77
2023/12/19 04:48:26;;;;;;;79.65;30.23;;;;;;;-1.23;100.00;98666.97;5101754;27;20112;-77
2023/12/19 04:50:52;;;;;;;94.47;28.35;;;;;;;-1.39;100.00;98676.53;5100912;28;20062;-78
2023/12/19 04:53:18;;;;;;;116.30;33.42;;;;;;;-1.31;100.00;98684.44;5128080;27;20042;-78
2023/12/19 04:55:44;;;;;;;121.00;27.25;;;;;;;-1.47;100.00;98666.88;5094928;27;20046;-78
2023/12/19 04:58:10;;;;;;;156.65;31.15;;;;;;;-1.50;100.00;98677.34;5082261;28;20506;-78
2023/12/19 05:00:35;;;;;;;107.95;29.05;;;;;;;-1.58;100.00;98676.47;5079738;27;20052;-77
2023/12/19 05:03:03;;;;;;;73.15;26.23;;;;;;;-1.59;100.00;98677.31;5083621;28;20032;-78
2023/12/19 05:05:28;;;;;;;60.40;21.92;;;;;;;-1.51;100.00;98681.75;5121525;27;20129;-77
2023/12/19 05:07:54;;;;;;;95.85;24.20;;;;;;;-1.43;100.00;98673.91;5109910;27;20031;-77
2023/12/19 05:10:20;;;;;;;87.93;25.20;;;;;;;-1.53;100.00;98679.97;5114477;27;20038;-78
2023/12/19 05:12:45;;;;;;;98.07;28.98;;;;;;;-1.71;100.00;98679.03;5134854;27;20106;-78
2023/12/19 05:15:11;;;;;;;103.85;32.70;;;;;;;-1.78;100.00;98682.50;5112485;27;20077;-76
2023/12/19 05:17:37;;;;;;;102.95;31.65;;;;;;;-1.81;100.00;98666.75;5106087;27;20466;-76
2023/12/19 05:20:02;;;;;;;112.88;29.83;;;;;;;-1.83;100.00;98678.97;5133558;27;20046;-76
2023/12/19 05:22:29;;;;;;;116.75;25.40;;;;;;;-1.81;100.00;98677.22;5124620;27;20101;-77
2023/12/19 05:24:54;;;;;;;89.60;25.65;;;;;;;-1.73;100.00;98695.63;5113752;27;20113;-79
2023/12/19 05:27:20;;;;;;;133.50;26.98;;;;;;;-1.64;100.00;98693.06;5112791;27;20106;-75
2023/12/19 05:29:46;;;;;;;167.85;28.95;;;;;;;-1.75;100.00;98682.50;5116042;27;20022;-76
2023/12/19 05:32:11;;;;;;;115.05;30.95;;;;;;;-1.72;100.00;98676.38;5134296;27;20342;-78
2023/12/19 05:34:37;;;;;;;97.15;28.55;;;;;;;-1.66;100.00;98681.66;5114142;27;20033;-77
2023/12/19 05:37:03;;;;;;;83.13;29.08;;;;;;;-1.51;100.00;98696.63;5117387;27;20027;-78
2023/12/19 05:39:30;;;;;;;96.93;33.88;;;;;;;-1.55;100.00;98690.47;5134308;27;20022;-76
2023/12/19 05:42:01;;;;;;;96.50;35.90;;;;;;;-1.50;100.00;98683.50;5116089;27;20424;-78
2023/12/19 05:44:27;;;;;;;90.47;34.38;;;;;;;-1.36;100.00;98687.06;5134159;27;20550;-78
2023/12/19 05:46:53;;;;;;;101.18;37.45;;;;;;;-1.34;100.00;98687.03;5134020;27;20034;-77
2023/12/19 05:49:19;;;;;;;97.63;34.47;;;;;;;-1.31;100.00;98689.69;5127549;27;20023;-78
2023/12/19 05:51:44;;;;;;;112.38;38.72;;;;;;;-1.22;100.00;98687.97;5131738;27;20023;-78
2023/12/19 05:54:10;;;;;;;138.35;40.33;;;;;;;-1.24;100.00;98696.69;5112737;27;20481;-78
2023/12/19 05:56:36;;;;;;;105.10;36.05;;;;;;;-1.17;100.00;98682.75;5133483;27;20014;-78
2023/12/19 05:59:01;;;;;;;108.18;40.13;;;;;;;-1.21;100.00;98686.22;5116663;27;20105;-78
2023/12/19 06:01:30;;;;;;;119.78;36.30;;;;;;;-1.21;100.00;98687.09;5127963;27;20402;-78
2023/12/19 06:03:56;;;;;;;126.25;46.53;;;;;;;-1.35;100.00;98672.16;5132717;27;20057;-78
2023/12/19 06:06:21;;;;;;;113.22;44.45;;;;;;;-1.21;100.00;98680.97;5116018;27;20121;-78
2023/12/19 06:08:47;;;;;;;124.35;45.40;;;;;;;-1.24;100.00;98678.34;5133689;27;20065;-78
2023/12/19 06:11:13;;;;;;;143.90;50.28;;;;;;;-1.35;100.00;98680.91;5133425;27;20086;-78
2023/12/19 06:13:38;;;;;;;122.47;41.53;;;;;;;-1.30;100.00;98680.94;5133852;27;20114;-77
2023/12/19 06:16:05;;;;;;;168.40;53.47;;;;;;;-1.34;100.00;98685.31;5133373;27;20035;-78
2023/12/19 06:18:36;;;;;;;160.68;51.00;;;;;;;-1.42;100.00;98687.03;5133112;27;20451;-79
2023/12/19 06:21:02;;;;;;;128.98;46.50;;;;;;;-1.28;100.00;98690.56;5133735;27;20053;-76
2023/12/19 06:23:27;;;;;;;149.13;50.35;;;;;;;-1.31;100.00;98689.69;5129242;27;20454;-78
2023/12/19 06:25:54;;;;;;;163.98;52.28;;;;;;;-1.42;100.00;98686.16;5129134;27;20101;-78
2023/12/19 06:28:20;;;;;;;189.32;58.40;;;;;;;-1.29;100.00;98690.56;5133117;27;20031;-78
2023/12/19 06:30:45;;;;;;;161.32;49.28;;;;;;;-1.18;100.00;98696.72;5133761;27;20034;-78
2023/12/19 06:33:11;;;;;;;154.73;47.95;;;;;;;-1.19;100.00;98690.59;5130444;27;20033;-78
2023/12/19 06:35:43;;;;;;;136.43;47.75;;;;;;;-1.08;100.00;98694.09;5133425;27;20375;-77
2023/12/19 06:38:09;;;;;;;240.10;62.92;;;;;;;-1.05;100.00;98698.50;5133559;27;20027;-78
2023/12/19 06:40:36;;;;;;;182.85;57.60;;;;;;;-0.97;100.00;98690.63;5133228;27;20147;-79
2023/12/19 06:43:10;;;;;;;168.95;56.00;;;;;;;-0.88;100.00;98695.91;5116415;27;20026;-78
2023/12/19 06:45:38;;;;;;;184.82;58.92;;;;;;;-0.94;100.00;98696.78;5116745;27;20037;-78
2023/12/19 06:48:05;;;;;;;223.23;65.47;;;;;;;-0.78;100.00;98700.28;5113082;27;20027;-77
2023/12/19 06:50:30;;;;;;;199.27;64.97;;;;;;;-0.61;100.00;98703.81;5116036;27;20432;-78
2023/12/19 06:52:56;;;;;;;249.40;64.75;;;;;;;-0.75;100.00;98697.69;5133092;27;20027;-79
2023/12/19 06:55:22;;;;;;;191.90;59.97;;;;;;;-0.75;100.00;98690.69;5133315;27;20409;-79
2023/12/19 06:57:48;;;;;;;391.88;66.97;;;;;;;-0.66;100.00;98698.56;5133236;27;20025;-80
2023/12/19 07:00:16;;;;;;;315.88;67.10;;;;;;;-0.53;100.00;98701.19;5130317;27;20339;-80
2023/12/19 07:02:42;;;;;;;279.52;83.07;;;;;;;-0.50;100.00;98704.69;5133234;27;20054;-79
2023/12/19 07:05:08;;;;;;;200.43;61.58;;;;;;;-0.36;100.00;98689.78;5115433;27;20065;-78
2023/12/19 07:07:34;;;;;;;250.32;68.70;;;;;;;-0.28;100.00;98690.69;5132608;27;20123;-79
2023/12/19 07:10:00;;;;;;;192.15;60.17;;;;;;;-0.23;100.00;98693.28;5133130;27;20034;-79
2023/12/19 07:12:25;;;;;;;279.10;75.07;;;;;;;0.00;100.00;98686.28;5140437;27;20034;-78
2023/12/19 07:14:51;;;;;;;283.90;59.33;;;;;;;-0.04;100.00;98688.03;5132957;27;20018;-80
2023/12/19 07:17:17;;;;;;;158.90;53.50;;;;;;;-0.15;100.00;98689.78;5120140;27;20428;-80
2023/12/19 07:19:49;;;;;;;172.30;53.63;;;;;;;0.01;100.00;98688.00;5117694;27;20053;-80
2023/12/19 07:22:14;;;;;;;134.05;45.33;;;;;;;0.14;100.00;98680.94;5114405;27;20118;-79
2023/12/19 07:24:40;;;;;;;144.77;47.72;;;;;;;0.11;100.00;98675.72;5119694;27;20461;-79
2023/12/19 07:27:06;;;;;;;184.48;53.05;;;;;;;0.13;100.00;98680.06;5132120;27;20046;-78
2023/12/19 07:29:31;;;;;;;154.70;45.25;;;;;;;0.06;100.00;98665.22;5132728;27;20022;-78
2023/12/19 07:31:58;;;;;;;189.18;52.20;;;;;;;0.27;100.00;98680.94;5136856;27;20079;-78
2023/12/19 07:34:23;;;;;;;193.13;54.28;;;;;;;0.47;100.00;98679.09;5116629;27;20175;-78
2023/12/19 07:36:51;;;;;;;140.60;51.15;;;;;;;0.77;100.00;98674.59;5113735;27;20023;-77
2023/12/19 07:39:17;;;;;;;153.60;51.15;;;;;;;1.01;100.00;98667.41;5154948;27;20060;-77
2023/12/19 07:41:42;;;;;;;171.85;44.80;;;;;;;1.11;100.00;98667.34;5119176;27;20035;-78
2023/12/19 07:44:14;;;;;;;139.15;39.17;;;;;;;1.35;100.00;98652.25;5136907;27;20038;-78
2023/12/19 07:46:41;;;;;;;146.05;45.92;;;;;;;1.66;100.00;98649.34;5137378;27;20015;-78
2023/12/19 07:49:06;;;;;;;167.68;49.25;;;;;;;2.24;100.00;98652.25;5136643;27;20023;-78
2023/12/19 07:51:32;;;;;;;127.13;46.20;;;;;;;3.05;100.00;98640.63;5125669;27;20029;-78
2023/12/19 07:53:58;;;;;;;126.68;42.45;;;;;;;3.57;100.00;98616.88;5134057;27;20494;-78
2023/12/19 07:56:23;;;;;;;124.72;45.65;;;;;;;3.74;100.00;98613.94;5112062;27;20091;-77
2023/12/19 07:58:49;;;;;;;119.55;43.42;;;;;;;3.49;100.00;98616.13;5118855;27;20031;-78
2023/12/19 08:01:15;;;;;;;130.65;43.13;;;;;;;3.20;100.00;98606.03;5119168;27;20018;-77
2023/12/19 08:03:42;;;;;;;121.90;44.83;;;;;;;3.19;100.00;98619.28;5135962;27;20088;-77
2023/12/19 08:06:08;;;;;;;125.53;45.80;;;;;;;3.00;100.00;98616.03;5111915;27;20152;-77
2023/12/19 08:08:33;;;;;;;130.82;48.40;;;;;;;3.16;100.00;98617.56;5116817;27;20103;-78
2023/12/19 08:10:59;;;;;;;174.10;59.88;;;;;;;2.87;100.00;98617.09;5135770;27;20365;-78
2023/12/19 08:13:25;;;;;;;177.75;68.82;;;;;;;3.02;100.00;98619.53;5129958;27;20616;-77
2023/12/19 08:15:51;;;;;;;149.88;58.03;;;;;;;3.12;100.00;98604.41;5133561;27;20441;-76
2023/12/19 08:18:17;;;;;;;171.63;58.47;;;;;;;3.14;100.00;98615.81;5129712;27;20023;-77
2023/12/19 08:20:43;;;;;;;190.68;66.20;;;;;;;3.27;100.00;98610.31;5118485;27;20122;-76
2023/12/19 08:23:09;;;;;;;163.65;64.28;;;;;;;3.16;100.00;98598.19;5116599;27;20022;-76
2023/12/19 08:25:35;;;;;;;179.18;66.25;;;;;;;3.49;100.00;98584.41;5133867;27;20209;-76
2023/12/19 08:28:01;;;;;;;178.65;65.22;;;;;;;3.80;100.00;98590.91;5118169;27;20122;-76
2023/12/19 08:30:30;;;;;;;174.55;65.70;;;;;;;4.05;100.00;98579.84;5135768;27;20023;-76
2023/12/19 08:32:59;;;;;;;179.30;68.72;;;;;;;4.15;100.00;98570.81;5136086;27;20030;-76
2023/12/19 08:35:25;;;;;;;189.60;69.10;;;;;;;4.76;100.00;98579.22;5135821;27;20020;-76
2023/12/19 08:37:51;;;;;;;200.52;70.25;;;;;;;4.67;100.00;98563.53;5118281;27;20018;-76
2023/12/19 08:40:18;;;;;;;189.95;72.22;;;;;;;4.03;100.00;98563.13;5135198;27;20027;-76
2023/12/19 08:42:44;;;;;;;215.07;71.82;;;;;;;3.31;100.00;98570.63;5118198;27;20080;-77
2023/12/19 08:45:16;;;;;;;201.15;74.15;;;;;;;3.13;100.00;98585.88;5135196;27;20433;-77
2023/12/19 08:47:46;;;;;;;225.75;75.40;;;;;;;3.20;100.00;98581.34;5134906;27;20449;-76
2023/12/19 08:50:13;;;;;;;196.88;72.20;;;;;;;3.18;100.00;98580.50;5135251;27;20021;-76
2023/12/19 08:52:40;;;;;;;208.13;67.63;;;;;;;3.12;100.00;98573.56;5135528;27;20018;-76
2023/12/19 08:55:07;;;;;;;215.43;74.60;;;;;;;3.61;100.00;98575.38;5153482;27;20046;-76
2023/12/19 08:57:41;;;;;;;199.07;71.97;;;;;;;4.33;100.00;98565.16;5117979;27;20018;-77
2023/12/19 09:00:12;;;;;;;200.57;72.72;;;;;;;4.60;100.00;98559.25;5134478;27;20565;-76
2023/12/19 09:02:42;;;;;;;151.23;56.72;;;;;;;5.04;100.00;98550.28;5118573;27;20106;-77
2023/12/19 09:05:10;;;;;;;240.38;98.15;;;;;;;5.13;100.00;98542.13;5128954;27;20034;-77
2023/12/19 09:07:35;;;;;;;198.13;77.88;;;;;;;5.43;100.00;98535.16;5135024;27;20098;-75
2023/12/19 09:10:01;;;;;;;209.05;79.22;;;;;;;6.03;100.00;98539.78;5117542;27;20110;-76
2023/12/19 09:12:27;;;;;;;214.93;82.70;;;;;;;6.79;100.00;98525.97;5125496;27;20038;-76
2023/12/19 09:14:52;;;;;;;213.23;80.15;;;;;;;7.56;100.00;98518.09;5132026;27;20478;-77
2023/12/19 09:17:18;;;;;;;191.85;79.68;;;;;;;8.85;100.00;98494.63;5133320;27;20091;-78
2023/12/19 09:19:44;;;;;;;191.98;78.05;;;;;;;9.82;100.00;98486.03;5114100;27;20026;-75
2023/12/19 09:22:10;;;;;;;192.85;82.65;;;;;;;10.98;100.00;98481.56;5117312;27;20184;-75
2023/12/19 09:24:36;;;;;;;198.15;91.15;;;;;;;11.65;95.53;98471.03;5111506;27;20469;-76
2023/12/19 09:27:02;;;;;;;209.23;94.03;;;;;;;11.67;88.73;98460.22;5129680;27;20030;-78
2023/12/19 09:29:28;;;;;;;207.50;92.03;;;;;;;11.10;88.29;98453.31;5134894;27;20474;-77
2023/12/19 09:31:54;;;;;;;201.35;93.63;;;;;;;11.65;90.04;98462.97;5111730;27;20023;-76
2023/12/19 09:34:20;;;;;;;202.25;94.63;;;;;;;11.76;86.72;98454.41;5134291;27;20450;-76
2023/12/19 09:36:45;;;;;;;206.88;94.25;;;;;;;12.33;82.39;98445.94;5117321;27;20106;-77
2023/12/19 09:39:14;;;;;;;178.75;87.45;;;;;;;12.33;80.93;98445.94;5116243;27;20022;-77
2023/12/19 09:41:45;;;;;;;189.27;84.50;;;;;;;12.95;78.65;98445.09;5134206;27;20131;-77
2023/12/19 09:44:11;;;;;;;177.02;82.93;;;;;;;13.17;73.63;98434.03;5134376;27;20027;-77
2023/12/19 09:46:37;;;;;;;173.30;78.68;;;;;;;12.87;76.78;98442.00;5108781;27;20035;-77
2023/12/19 09:49:03;;;;;;;164.65;74.63;;;;;;;12.76;79.08;98443.56;5128390;27;20037;-76
2023/12/19 09:51:32;;;;;;;136.40;61.60;;;;;;;12.36;83.69;98429.69;5132358;27;20030;-77
2023/12/19 09:54:00;;;;;;;125.03;56.83;;;;;;;13.11;80.42;98422.75;5131316;27;20110;-77
2023/12/19 09:56:26;;;;;;;112.03;53.70;;;;;;;13.49;77.52;98416.88;5134185;27;20030;-75
2023/12/19 09:58:53;;;;;;;106.53;52.38;;;;;;;14.20;71.27;98411.59;5135226;27;20061;-76
2023/12/19 10:01:19;;;;;;;100.65;50.00;;;;;;;13.84;73.54;98395.91;5116999;27;20027;-77
2023/12/19 10:03:45;;;;;;;90.10;44.40;;;;;;;13.98;73.99;98397.75;5152110;27;20034;-77
2023/12/19 10:06:11;;;;;;;90.13;45.10;;;;;;;13.51;78.16;98409.59;5133603;27;20103;-76
2023/12/19 10:08:46;;;;;;;80.70;43.22;;;;;;;13.22;85.52;98414.97;5134062;27;20022;-76
2023/12/19 10:11:18;;;;;;;77.88;40.55;;;;;;;13.28;85.59;98411.91;5133613;27;20029;-77
2023/12/19 10:13:45;;;;;;;;;;;;;;;13.67;85.04;98401.47;5134599;27;20402;-77
2023/12/19 10:16:12;;;;;;;65.15;33.10;;;;;;;13.67;84.47;98389.84;5128687;27;20295;-77
2023/12/19 10:18:39;;;;;;;62.05;32.22;;;;;;;14.38;79.07;98383.56;5116918;27;20379;-76
2023/12/19 10:21:05;;;;;;;60.28;30.35;;;;;;;14.01;81.56;98378.75;5119393;27;20022;-77
2023/12/19 10:23:33;;;;;;;54.67;28.88;;;;;;;14.24;78.02;98367.41;5152579;27;20022;-77
2023/12/19 10:25:59;;;;;;;58.70;28.92;;;;;;;14.74;74.66;98364.16;5131011;27;20027;-77
2023/12/19 10:28:25;;;;;;;48.38;25.70;;;;;;;15.30;70.71;98354.97;5130372;27;20023;-77
2023/12/19 10:30:50;;;;;;;45.55;24.55;;;;;;;15.75;67.67;98344.72;5128551;27;20389;-76
2023/12/19 10:33:16;;;;;;;37.92;22.40;;;;;;;16.86;60.56;98332.97;5152396;27;20018;-78
2023/12/19 10:35:45;;;;;;;49.33;26.83;;;;;;;17.70;57.06;98314.75;5128220;27;20023;-76
2023/12/19 10:38:11;;;;;;;44.40;25.33;;;;;;;18.56;53.90;98315.03;5134251;27;20096;-77
2023/12/19 10:40:37;;;;;;;36.38;22.38;;;;;;;19.06;49.74;98288.28;5133819;27;20034;-78
2023/12/19 10:43:03;;;;;;;43.83;24.17;;;;;;;19.32;48.82;98286.91;5133715;27;20023;-78
2023/12/19 10:45:29;;;;;;;37.88;23.40;;;;;;;20.15;47.83;98282.31;5152496;27;20022;-77
2023/12/19 10:47:55;;;;;;;40.53;24.42;;;;;;;20.49;46.48;98280.19;5133115;27;20023;-76
2023/12/19 10:50:21;;;;;;;37.00;22.55;;;;;;;21.07;44.34;98273.84;5119956;27;20091;-77
2023/12/19 10:52:50;;;;;;;34.92;21.27;;;;;;;21.00;42.42;98250.06;5138196;27;20075;-76
2023/12/19 10:55:21;;;;;;;38.70;23.13;;;;;;;20.73;42.41;98261.66;5132665;27;20145;-80
2023/12/19 10:57:49;;;;;;;37.08;22.83;;;;;;;20.98;41.81;98250.19;5116797;27;20029;-76
2023/12/19 11:00:21;;;;;;;44.58;25.35;;;;;;;20.89;42.27;98250.19;5135166;27;20019;-76
2023/12/19 11:02:57;;;;;;;58.15;36.20;;;;;;;21.16;42.36;98242.25;5138692;27;20474;-77